sensor_id;sensor_type;location;lat;lon;timestamp;pressure;altitude;pressure_sealevel;temperature;humidity
42945;BME280;28584;42.636;23.294;2022-11-21T00:01:48;123452.03;;;8.60;100.00
42945;BME280;28584;42.636;23.294;2022-11-21T00:04:14;123366.63;;;8.59;100.00
42945;BME280;28584;42.636;23.294;2022-11-21T00:06:39;123253.16;;;8.54;100.00
42945;BME280;28584;42.636;23.294;2022-11-21T00:09:04;123075.81;;;8.55;100.00
42945;BME280;28584;42.636;23.294;2022-11-21T00:11:30;122893.81;;;8.50;100.00
42945;BME280;28584;42.636;23.294;2022-11-21T00:13:55;122940.44;;;8.50;100.00
42945;BME280;28584;42.636;23.294;2022-11-21T00:16:21;122847.88;;;8.49;100.00
42945;BME280;28584;42.636;23.294;2022-11-21T00:18:46;122759.41;;;8.60;100.00
42945;BME280;28584;42.636;23.294;2022-11-21T00:21:13;122495.50;;;8.62;100.00
42945;BME280;28584;42.636;23.294;2022-11-21T00:23:40;122598.94;;;8.58;100.00
42945;BME280;28584;42.636;23.294;2022-11-21T00:26:07;122440.47;;;8.66;100.00
42945;BME280;28584;42.636;23.294;2022-11-21T00:28:33;122397.63;;;8.48;100.00
42945;BME280;28584;42.636;23.294;2022-11-21T00:30:59;122476.50;;;8.29;100.00
42945;BME280;28584;42.636;23.294;2022-11-21T00:33:24;122596.91;;;8.28;100.00
42945;BME280;28584;42.636;23.294;2022-11-21T00:35:49;122839.81;;;8.22;100.00
42945;BME280;28584;42.636;23.294;2022-11-21T00:38:15;123068.09;;;8.25;100.00
42945;BME280;28584;42.636;23.294;2022-11-21T00:40:44;123457.19;;;8.27;100.00
42945;BME280;28584;42.636;23.294;2022-11-21T00:43:10;124566.75;;;8.28;100.00
42945;BME280;28584;42.636;23.294;2022-11-21T00:45:35;125343.53;;;8.40;100.00
42945;BME280;28584;42.636;23.294;2022-11-21T00:48:01;125877.69;;;8.46;100.00
42945;BME280;28584;42.636;23.294;2022-11-21T00:50:26;126184.09;;;8.56;100.00
42945;BME280;28584;42.636;23.294;2022-11-21T00:52:55;126399.00;;;8.40;100.00
42945;BME280;28584;42.636;23.294;2022-11-21T00:55:21;126219.56;;;8.44;100.00
42945;BME280;28584;42.636;23.294;2022-11-21T00:57:47;126120.03;;;8.30;100.00
42945;BME280;28584;42.636;23.294;2022-11-21T01:00:12;126039.28;;;8.26;100.00
42945;BME280;28584;42.636;23.294;2022-11-21T01:02:38;125962.03;;;8.24;100.00
42945;BME280;28584;42.636;23.294;2022-11-21T01:05:03;125828.41;;;8.17;100.00
42945;BME280;28584;42.636;23.294;2022-11-21T01:07:29;125759.44;;;8.34;100.00
42945;BME280;28584;42.636;23.294;2022-11-21T01:09:54;125018.66;;;8.72;100.00
42945;BME280;28584;42.636;23.294;2022-11-21T01:12:20;124284.31;;;8.75;100.00
42945;BME280;28584;42.636;23.294;2022-11-21T01:14:45;122508.53;;;8.97;100.00
42945;BME280;28584;42.636;23.294;2022-11-21T01:17:10;120762.03;;;9.51;100.00
42945;BME280;28584;42.636;23.294;2022-11-21T01:19:36;117853.13;;;9.81;100.00
42945;BME280;28584;42.636;23.294;2022-11-21T01:22:01;116127.75;;;9.75;100.00
42945;BME280;28584;42.636;23.294;2022-11-21T01:24:27;113619.72;;;9.36;100.00
42945;BME280;28584;42.636;23.294;2022-11-21T01:26:52;111196.94;;;9.10;100.00
42945;BME280;28584;42.636;23.294;2022-11-21T01:29:18;110297.06;;;9.33;100.00
42945;BME280;28584;42.636;23.294;2022-11-21T01:31:43;105314.63;;;9.28;100.00
42945;BME280;28584;42.636;23.294;2022-11-21T01:34:09;102146.50;;;9.11;100.00
42945;BME280;28584;42.636;23.294;2022-11-21T01:36:34;99811.13;;;9.10;100.00
42945;BME280;28584;42.636;23.294;2022-11-21T01:39:04;97175.56;;;9.01;100.00
42945;BME280;28584;42.636;23.294;2022-11-21T01:41:38;94062.34;;;8.90;100.00
42945;BME280;28584;42.636;23.294;2022-11-21T01:46:41;91203.91;;;8.62;100.00
42945;BME280;28584;42.636;23.294;2022-11-21T01:49:10;90606.31;;;8.46;100.00
42945;BME280;28584;42.636;23.294;2022-11-21T01:51:45;90705.19;;;8.48;100.00
42945;BME280;28584;42.636;23.294;2022-11-21T01:54:30;91231.38;;;8.44;100.00
42945;BME280;28584;42.636;23.294;2022-11-21T01:57:02;92121.78;;;8.43;100.00
42945;BME280;28584;42.636;23.294;2022-11-21T01:59:54;94015.53;;;8.41;100.00
42945;BME280;28584;42.636;23.294;2022-11-21T02:02:24;94451.69;;;8.38;100.00
42945;BME280;28584;42.636;23.294;2022-11-21T02:04:52;96579.59;;;8.81;100.00
42945;BME280;28584;42.636;23.294;2022-11-21T02:07:19;93670.31;;;8.86;100.00
42945;BME280;28584;42.636;23.294;2022-11-21T02:09:50;91850.16;;;8.92;100.00
42945;BME280;28584;42.636;23.294;2022-11-21T02:12:22;89564.50;;;9.27;100.00
42945;BME280;28584;42.636;23.294;2022-11-21T02:14:48;84896.97;;;9.40;100.00
42945;BME280;28584;42.636;23.294;2022-11-21T02:17:17;81719.03;;;9.63;100.00
42945;BME280;28584;42.636;23.294;2022-11-21T02:19:53;80302.81;;;9.73;100.00
42945;BME280;28584;42.636;23.294;2022-11-21T02:22:51;84446.41;;;10.00;100.00
42945;BME280;28584;42.636;23.294;2022-11-21T02:25:25;100653.88;;;10.52;100.00
42945;BME280;28584;42.636;23.294;2022-11-21T02:27:58;138050.34;;;10.58;100.00
42945;BME280;28584;42.636;23.294;2022-11-21T02:30:26;161373.44;;;10.59;100.00
42945;BME280;28584;42.636;23.294;2022-11-21T02:32:52;161349.38;;;10.50;100.00
42945;BME280;28584;42.636;23.294;2022-11-21T02:35:18;161377.44;;;10.60;100.00
42945;BME280;28584;42.636;23.294;2022-11-21T02:37:46;161318.69;;;10.38;100.00
42945;BME280;28584;42.636;23.294;2022-11-21T02:40:22;161366.75;;;10.56;100.00
42945;BME280;28584;42.636;23.294;2022-11-21T02:43:15;161417.50;;;10.75;100.00
42945;BME280;28584;42.636;23.294;2022-11-21T02:45:44;161454.91;;;10.89;100.00
42945;BME280;28584;42.636;23.294;2022-11-21T02:48:10;161390.78;;;10.65;100.00
42945;BME280;28584;42.636;23.294;2022-11-21T02:50:38;161454.91;;;10.89;100.00
42945;BME280;28584;42.636;23.294;2022-11-21T02:53:05;161527.09;;;11.16;100.00
42945;BME280;28584;42.636;23.294;2022-11-21T02:55:31;161479.00;;;10.98;100.00
42945;BME280;28584;42.636;23.294;2022-11-21T02:57:56;161416.19;;;10.75;100.00
42945;BME280;28584;42.636;23.294;2022-11-21T03:00:22;161340.03;;;10.46;100.00
42945;BME280;28584;42.636;23.294;2022-11-21T03:02:47;161249.19;;;10.12;100.00
42945;BME280;28584;42.636;23.294;2022-11-21T03:05:15;154465.97;;;9.67;100.00
42945;BME280;28584;42.636;23.294;2022-11-21T03:07:41;119553.97;;;9.40;100.00
42945;BME280;28584;42.636;23.294;2022-11-21T03:10:07;101540.97;;;9.13;100.00
42945;BME280;28584;42.636;23.294;2022-11-21T03:12:35;94400.19;;;9.16;100.00
42945;BME280;28584;42.636;23.294;2022-11-21T03:15:01;89238.41;;;9.18;100.00
42945;BME280;28584;42.636;23.294;2022-11-21T03:17:26;88032.88;;;9.12;100.00
42945;BME280;28584;42.636;23.294;2022-11-21T03:19:51;87487.63;;;9.11;100.00
42945;BME280;28584;42.636;23.294;2022-11-21T03:22:17;87398.31;;;9.27;100.00
42945;BME280;28584;42.636;23.294;2022-11-21T03:24:42;90695.50;;;9.28;100.00
42945;BME280;28584;42.636;23.294;2022-11-21T03:27:07;101706.03;;;9.53;100.00
42945;BME280;28584;42.636;23.294;2022-11-21T03:29:33;127207.63;;;9.70;100.00
42945;BME280;28584;42.636;23.294;2022-11-21T03:31:58;138889.59;;;9.73;100.00
42945;BME280;28584;42.636;23.294;2022-11-21T03:34:24;156045.28;;;9.92;100.00
42945;BME280;28584;42.636;23.294;2022-11-21T03:36:50;161235.88;;;10.07;100.00
42945;BME280;28584;42.636;23.294;2022-11-21T03:39:15;161249.19;;;10.12;100.00
42945;BME280;28584;42.636;23.294;2022-11-21T03:41:41;161287.94;;;10.27;100.00
42945;BME280;28584;42.636;23.294;2022-11-21T03:44:08;161297.28;;;10.30;100.00
42945;BME280;28584;42.636;23.294;2022-11-21T03:46:37;161297.28;;;10.30;100.00
42945;BME280;28584;42.636;23.294;2022-11-21T03:49:02;161269.25;;;10.20;100.00
42945;BME280;28584;42.636;23.294;2022-11-21T03:51:28;161261.22;;;10.17;100.00
42945;BME280;28584;42.636;23.294;2022-11-21T03:53:54;161289.25;;;10.27;100.00
42945;BME280;28584;42.636;23.294;2022-11-21T03:56:20;161336.03;;;10.45;100.00
42945;BME280;28584;42.636;23.294;2022-11-21T03:58:45;161329.38;;;10.42;100.00
42945;BME280;28584;42.636;23.294;2022-11-21T04:01:11;161372.06;;;10.58;100.00
42945;BME280;28584;42.636;23.294;2022-11-21T04:03:41;161461.63;;;10.92;100.00
42945;BME280;28584;42.636;23.294;2022-11-21T04:06:07;161456.28;;;10.90;100.00
42945;BME280;28584;42.636;23.294;2022-11-21T04:08:32;161477.63;;;10.98;100.00
42945;BME280;28584;42.636;23.294;2022-11-21T04:10:57;161436.22;;;10.82;100.00
42945;BME280;28584;42.636;23.294;2022-11-21T04:13:23;161418.88;;;10.76;100.00
42945;BME280;28584;42.636;23.294;2022-11-21T04:15:49;161430.91;;;10.80;100.00
42945;BME280;28584;42.636;23.294;2022-11-21T04:18:14;161456.28;;;10.90;100.00
42945;BME280;28584;42.636;23.294;2022-11-21T04:20:40;161523.09;;;11.15;100.00
42945;BME280;28584;42.636;23.294;2022-11-21T04:23:06;161543.16;;;11.23;100.00
42945;BME280;28584;42.636;23.294;2022-11-21T04:25:32;161601.94;;;11.45;100.00
42945;BME280;28584;42.636;23.294;2022-11-21T04:27:58;161559.19;;;11.29;100.00
42945;BME280;28584;42.636;23.294;2022-11-21T04:30:24;161612.63;;;11.49;100.00
42945;BME280;28584;42.636;23.294;2022-11-21T04:32:50;161603.31;;;11.45;100.00
42945;BME280;28584;42.636;23.294;2022-11-21T04:35:16;161605.97;;;11.46;100.00
42945;BME280;28584;42.636;23.294;2022-11-21T04:37:41;161607.31;;;11.47;100.00
42945;BME280;28584;42.636;23.294;2022-11-21T04:40:07;161647.47;;;11.62;100.00
42945;BME280;28584;42.636;23.294;2022-11-21T04:42:32;161635.38;;;11.57;100.00
42945;BME280;28584;42.636;23.294;2022-11-21T04:44:58;161596.63;;;11.43;100.00
42945;BME280;28584;42.636;23.294;2022-11-21T04:47:23;161585.94;;;11.39;100.00
42945;BME280;28584;42.636;23.294;2022-11-21T04:49:49;161607.31;;;11.47;100.00
42945;BME280;28584;42.636;23.294;2022-11-21T04:52:14;161631.34;;;11.56;100.00
42945;BME280;28584;42.636;23.294;2022-11-21T04:54:39;161622.00;;;11.52;100.00
42945;BME280;28584;42.636;23.294;2022-11-21T04:57:05;161591.25;;;11.41;100.00
42945;BME280;28584;42.636;23.294;2022-11-21T04:59:30;161607.31;;;11.47;100.00
42945;BME280;28584;42.636;23.294;2022-11-21T05:01:56;161626.03;;;11.54;100.00
42945;BME280;28584;42.636;23.294;2022-11-21T05:04:21;161631.34;;;11.56;100.00
42945;BME280;28584;42.636;23.294;2022-11-21T05:06:46;161626.03;;;11.54;100.00
42945;BME280;28584;42.636;23.294;2022-11-21T05:09:12;161620.66;;;11.52;100.00
42945;BME280;28584;42.636;23.294;2022-11-21T05:11:37;161656.84;;;11.65;100.00
42945;BME280;28584;42.636;23.294;2022-11-21T05:14:21;161647.47;;;11.62;100.00
42945;BME280;28584;42.636;23.294;2022-11-21T05:16:50;161664.88;;;11.68;100.00
42945;BME280;28584;42.636;23.294;2022-11-21T05:19:15;161662.16;;;11.67;100.00
42945;BME280;28584;42.636;23.294;2022-11-21T05:21:41;161676.88;;;11.73;100.00
42945;BME280;28584;42.636;23.294;2022-11-21T05:24:06;161668.84;;;11.70;100.00
42945;BME280;28584;42.636;23.294;2022-11-21T05:26:32;161671.53;;;11.71;100.00
42945;BME280;28584;42.636;23.294;2022-11-21T05:28:57;161644.75;;;11.61;100.00
42945;BME280;28584;42.636;23.294;2022-11-21T05:31:22;161664.88;;;11.68;100.00
42945;BME280;28584;42.636;23.294;2022-11-21T05:33:48;161636.72;;;11.58;100.00
42945;BME280;28584;42.636;23.294;2022-11-21T05:36:13;161678.22;;;11.73;100.00
42945;BME280;28584;42.636;23.294;2022-11-21T05:38:38;161668.84;;;11.70;100.00
42945;BME280;28584;42.636;23.294;2022-11-21T05:41:04;161691.56;;;11.78;100.00
42945;BME280;28584;42.636;23.294;2022-11-21T05:43:29;161702.31;;;11.82;100.00
42945;BME280;28584;42.636;23.294;2022-11-21T05:46:18;161699.59;;;11.81;100.00
42945;BME280;28584;42.636;23.294;2022-11-21T05:48:45;161666.19;;;11.69;100.00
42945;BME280;28584;42.636;23.294;2022-11-21T05:51:11;161658.16;;;11.66;100.00
42945;BME280;28584;42.636;23.294;2022-11-21T05:53:36;161634.06;;;11.57;100.00
42945;BME280;28584;42.636;23.294;2022-11-21T05:56:03;161631.34;;;11.56;100.00
42945;BME280;28584;42.636;23.294;2022-11-21T05:58:29;161324.00;;;10.40;100.00
42945;BME280;28584;42.636;23.294;2022-11-21T06:00:55;160803.41;;;8.45;100.00
42945;BME280;28584;42.636;23.294;2022-11-21T06:03:22;160843.41;;;8.60;100.00
42945;BME280;28584;42.636;23.294;2022-11-21T06:06:01;160673.97;;;7.96;100.00
42945;BME280;28584;42.636;23.294;2022-11-21T06:08:28;160659.31;;;7.91;100.00
42945;BME280;28584;42.636;23.294;2022-11-21T06:10:54;156403.69;;;7.74;100.00
42945;BME280;28584;42.636;23.294;2022-11-21T06:13:19;143399.00;;;7.62;100.00
42945;BME280;28584;42.636;23.294;2022-11-21T06:16:04;127599.13;;;7.44;100.00
42945;BME280;28584;42.636;23.294;2022-11-21T06:18:32;120943.66;;;7.37;100.00
42945;BME280;28584;42.636;23.294;2022-11-21T06:21:09;116282.69;;;7.23;100.00
42945;BME280;28584;42.636;23.294;2022-11-21T06:23:36;113748.25;;;6.92;100.00
42945;BME280;28584;42.636;23.294;2022-11-21T06:26:04;107688.38;;;6.58;100.00
42945;BME280;28584;42.636;23.294;2022-11-21T06:28:32;101894.34;;;6.27;100.00
42945;BME280;28584;42.636;23.294;2022-11-21T06:31:10;95751.25;;;6.13;100.00
42945;BME280;28584;42.636;23.294;2022-11-21T06:33:37;90712.22;;;6.03;100.00
42945;BME280;28584;42.636;23.294;2022-11-21T06:36:07;86810.88;;;6.12;100.00
42945;BME280;28584;42.636;23.294;2022-11-21T06:38:34;84842.34;;;5.85;100.00
42945;BME280;28584;42.636;23.294;2022-11-21T06:41:18;82011.41;;;5.48;100.00
42945;BME280;28584;42.636;23.294;2022-11-21T06:43:44;79338.88;;;5.59;100.00
42945;BME280;28584;42.636;23.294;2022-11-21T06:46:13;78146.81;;;5.42;100.00
42945;BME280;28584;42.636;23.294;2022-11-21T06:48:38;77342.88;;;5.27;100.00
42945;BME280;28584;42.636;23.294;2022-11-21T06:51:05;76889.22;;;5.00;100.00
42945;BME280;28584;42.636;23.294;2022-11-21T06:53:32;76673.44;;;4.89;100.00
42945;BME280;28584;42.636;23.294;2022-11-21T06:55:58;76511.97;;;4.74;100.00
42945;BME280;28584;42.636;23.294;2022-11-21T06:58:24;76593.59;;;4.49;100.00
42945;BME280;28584;42.636;23.294;2022-11-21T07:00:49;76908.09;;;4.36;100.00
42945;BME280;28584;42.636;23.294;2022-11-21T07:03:15;77471.06;;;4.26;100.00
42945;BME280;28584;42.636;23.294;2022-11-21T07:05:40;78308.03;;;4.20;100.00
42945;BME280;28584;42.636;23.294;2022-11-21T07:08:05;79493.22;;;4.21;100.00
42945;BME280;28584;42.636;23.294;2022-11-21T07:10:31;81427.44;;;4.08;100.00
42945;BME280;28584;42.636;23.294;2022-11-21T07:12:57;84924.53;;;4.01;100.00
42945;BME280;28584;42.636;23.294;2022-11-21T07:15:42;90133.16;;;3.93;100.00
42945;BME280;28584;42.636;23.294;2022-11-21T07:18:07;94733.00;;;3.82;100.00
42945;BME280;28584;42.636;23.294;2022-11-21T07:20:33;97904.44;;;3.85;100.00
42945;BME280;28584;42.636;23.294;2022-11-21T07:22:58;100954.50;;;3.87;100.00
42945;BME280;28584;42.636;23.294;2022-11-21T07:25:25;103433.22;;;3.99;100.00
42945;BME280;28584;42.636;23.294;2022-11-21T07:27:50;106266.66;;;4.03;100.00
42945;BME280;28584;42.636;23.294;2022-11-21T07:30:16;108701.31;;;4.01;100.00
42945;BME280;28584;42.636;23.294;2022-11-21T07:32:41;110985.59;;;4.05;100.00
42945;BME280;28584;42.636;23.294;2022-11-21T07:35:07;112823.34;;;4.08;100.00
42945;BME280;28584;42.636;23.294;2022-11-21T07:37:36;114484.59;;;4.10;100.00
42945;BME280;28584;42.636;23.294;2022-11-21T07:40:02;115548.44;;;4.20;100.00
42945;BME280;28584;42.636;23.294;2022-11-21T07:42:28;116493.25;;;4.22;100.00
42945;BME280;28584;42.636;23.294;2022-11-21T07:44:53;116940.84;;;4.27;100.00
42945;BME280;28584;42.636;23.294;2022-11-21T07:47:18;117510.66;;;4.22;100.00
42945;BME280;28584;42.636;23.294;2022-11-21T07:49:44;117746.22;;;4.27;100.00
42945;BME280;28584;42.636;23.294;2022-11-21T07:52:09;117847.91;;;4.28;100.00
42945;BME280;28584;42.636;23.294;2022-11-21T07:54:34;118165.25;;;4.20;100.00
42945;BME280;28584;42.636;23.294;2022-11-21T07:57:00;118338.31;;;4.25;100.00
42945;BME280;28584;42.636;23.294;2022-11-21T07:59:25;118826.31;;;4.19;100.00
42945;BME280;28584;42.636;23.294;2022-11-21T08:01:51;119090.69;;;4.09;100.00
42945;BME280;28584;42.636;23.294;2022-11-21T08:04:17;119450.94;;;4.10;100.00
42945;BME280;28584;42.636;23.294;2022-11-21T08:06:42;119570.69;;;4.10;100.00
42945;BME280;28584;42.636;23.294;2022-11-21T08:09:08;119551.66;;;3.99;100.00
42945;BME280;28584;42.636;23.294;2022-11-21T08:11:35;119666.66;;;4.03;100.00
42945;BME280;28584;42.636;23.294;2022-11-21T08:14:00;119704.78;;;4.03;100.00
42945;BME280;28584;42.636;23.294;2022-11-21T08:16:26;119765.41;;;4.02;100.00
42945;BME280;28584;42.636;23.294;2022-11-21T08:18:52;120012.03;;;3.96;100.00
42945;BME280;28584;42.636;23.294;2022-11-21T08:21:18;120223.94;;;4.04;100.00
42945;BME280;28584;42.636;23.294;2022-11-21T08:23:43;120135.50;;;3.97;100.00
42945;BME280;28584;42.636;23.294;2022-11-21T08:26:08;120675.63;;;4.23;100.00
42945;BME280;28584;42.636;23.294;2022-11-21T08:28:34;120694.56;;;4.48;100.00
42945;BME280;28584;42.636;23.294;2022-11-21T08:31:03;120682.34;;;4.61;100.00
42945;BME280;28584;42.636;23.294;2022-11-21T08:33:28;120666.59;;;4.69;100.00
42945;BME280;28584;42.636;23.294;2022-11-21T08:35:54;120649.31;;;4.54;100.00
42945;BME280;28584;42.636;23.294;2022-11-21T08:38:19;120349.13;;;4.51;100.00
42945;BME280;28584;42.636;23.294;2022-11-21T08:40:44;120153.56;;;4.70;100.00
42945;BME280;28584;42.636;23.294;2022-11-21T08:43:10;119761.22;;;4.65;100.00
42945;BME280;28584;42.636;23.294;2022-11-21T08:45:36;119666.09;;;4.55;100.00
42945;BME280;28584;42.636;23.294;2022-11-21T08:48:03;119191.28;;;4.73;100.00
42945;BME280;28584;42.636;23.294;2022-11-21T08:50:28;118844.50;;;4.61;100.00
42945;BME280;28584;42.636;23.294;2022-11-21T08:53:00;118411.59;;;4.88;100.00
42945;BME280;28584;42.636;23.294;2022-11-21T08:55:27;117680.56;;;4.87;100.00
42945;BME280;28584;42.636;23.294;2022-11-21T08:57:52;117322.63;;;5.08;100.00
42945;BME280;28584;42.636;23.294;2022-11-21T09:00:18;116445.81;;;5.19;100.00
42945;BME280;28584;42.636;23.294;2022-11-21T09:02:43;115655.97;;;5.11;100.00
42945;BME280;28584;42.636;23.294;2022-11-21T09:05:09;115252.28;;;5.03;100.00
42945;BME280;28584;42.636;23.294;2022-11-21T09:07:34;114539.03;;;5.03;100.00
42945;BME280;28584;42.636;23.294;2022-11-21T09:09:59;114064.19;;;4.98;100.00
42945;BME280;28584;42.636;23.294;2022-11-21T09:12:25;113397.25;;;5.10;100.00
42945;BME280;28584;42.636;23.294;2022-11-21T09:14:50;112778.44;;;5.06;100.00
42945;BME280;28584;42.636;23.294;2022-11-21T09:17:35;111903.41;;;4.80;100.00
42945;BME280;28584;42.636;23.294;2022-11-21T09:20:19;110683.75;;;4.85;100.00
42945;BME280;28584;42.636;23.294;2022-11-21T09:22:45;109719.81;;;4.83;100.00
42945;BME280;28584;42.636;23.294;2022-11-21T09:25:10;108635.25;;;4.58;100.00
42945;BME280;28584;42.636;23.294;2022-11-21T09:27:35;108305.28;;;4.42;100.00
42945;BME280;28584;42.636;23.294;2022-11-21T09:30:01;107717.38;;;4.64;100.00
42945;BME280;28584;42.636;23.294;2022-11-21T09:32:26;106661.44;;;4.81;100.00
42945;BME280;28584;42.636;23.294;2022-11-21T09:34:51;106404.28;;;4.83;100.00
42945;BME280;28584;42.636;23.294;2022-11-21T09:37:17;105381.50;;;4.88;100.00
42945;BME280;28584;42.636;23.294;2022-11-21T09:39:42;104098.59;;;4.90;100.00
42945;BME280;28584;42.636;23.294;2022-11-21T09:47:32;104513.97;;;3.91;100.00
42945;BME280;28584;42.636;23.294;2022-11-21T09:50:02;105909.97;;;3.99;100.00
42945;BME280;28584;42.636;23.294;2022-11-21T09:52:38;107039.09;;;4.12;100.00
42945;BME280;28584;42.636;23.294;2022-11-21T09:55:23;108413.28;;;4.25;100.00
42945;BME280;28584;42.636;23.294;2022-11-21T09:57:51;109386.78;;;4.29;100.00
42945;BME280;28584;42.636;23.294;2022-11-21T10:00:22;110049.31;;;4.41;100.00
42945;BME280;28584;42.636;23.294;2022-11-21T10:02:49;110351.56;;;4.28;100.00
42945;BME280;28584;42.636;23.294;2022-11-21T10:05:16;110719.09;;;3.81;100.00
42945;BME280;28584;42.636;23.294;2022-11-21T10:07:42;111618.47;;;3.85;100.00
42945;BME280;28584;42.636;23.294;2022-11-21T10:10:26;112475.47;;;3.67;100.00
42945;BME280;28584;42.636;23.294;2022-11-21T10:23:25;116823.00;;;3.14;100.00
42945;BME280;28584;42.636;23.294;2022-11-21T10:26:08;117514.78;;;3.29;100.00
42945;BME280;28584;42.636;23.294;2022-11-21T10:28:59;118284.44;;;3.16;100.00
42945;BME280;28584;42.636;23.294;2022-11-21T10:31:34;118863.03;;;3.27;100.00
42945;BME280;28584;42.636;23.294;2022-11-21T10:34:02;119053.75;;;3.30;100.00
42945;BME280;28584;42.636;23.294;2022-11-21T10:36:38;119357.91;;;3.34;100.00
42945;BME280;28584;42.636;23.294;2022-11-21T10:39:13;119237.53;;;3.35;100.00
42945;BME280;28584;42.636;23.294;2022-11-21T10:47:16;120080.84;;;3.17;100.00
42945;BME280;28584;42.636;23.294;2022-11-21T10:49:54;120268.91;;;3.20;100.00
42945;BME280;28584;42.636;23.294;2022-11-21T10:52:24;120545.06;;;3.24;100.00
42945;BME280;28584;42.636;23.294;2022-11-21T10:55:05;120754.56;;;3.20;100.00
42945;BME280;28584;42.636;23.294;2022-11-21T10:57:43;120954.03;;;3.20;100.00
42945;BME280;28584;42.636;23.294;2022-11-21T11:02:56;121123.19;;;3.23;100.00
42945;BME280;28584;42.636;23.294;2022-11-21T11:05:30;121051.03;;;3.44;100.00
42945;BME280;28584;42.636;23.294;2022-11-21T11:10:32;121426.69;;;3.36;100.00
42945;BME280;28584;42.636;23.294;2022-11-21T11:12:58;121703.31;;;3.14;100.00
42945;BME280;28584;42.636;23.294;2022-11-21T11:18:24;122219.94;;;3.18;100.00
42945;BME280;28584;42.636;23.294;2022-11-21T11:20:50;122506.50;;;3.23;100.00
42945;BME280;28584;42.636;23.294;2022-11-21T11:23:21;122518.47;;;3.15;100.00
42945;BME280;28584;42.636;23.294;2022-11-21T11:25:58;122772.84;;;3.09;100.00
42945;BME280;28584;42.636;23.294;2022-11-21T11:28:25;122854.38;;;3.21;100.00
42945;BME280;28584;42.636;23.294;2022-11-21T11:30:53;123431.88;;;3.28;100.00
42945;BME280;28584;42.636;23.294;2022-11-21T11:33:49;123143.75;;;3.18;100.00
42945;BME280;28584;42.636;23.294;2022-11-21T11:36:36;123216.91;;;3.24;100.00
42945;BME280;28584;42.636;23.294;2022-11-21T11:47:57;123380.47;;;3.26;100.00
42945;BME280;28584;42.636;23.294;2022-11-21T11:50:49;123462.44;;;3.27;100.00
42945;BME280;28584;42.636;23.294;2022-11-21T11:55:53;123312.13;;;3.40;100.00
42945;BME280;28584;42.636;23.294;2022-11-21T11:58:44;123139.97;;;3.41;100.00
42945;BME280;28584;42.636;23.294;2022-11-21T12:01:20;123036.56;;;3.49;100.00
42945;BME280;28584;42.636;23.294;2022-11-21T12:03:55;122820.19;;;3.47;100.00
42945;BME280;28584;42.636;23.294;2022-11-21T12:06:33;122771.72;;;3.62;100.00
42945;BME280;28584;42.636;23.294;2022-11-21T12:12:34;122315.06;;;3.65;100.00
42945;BME280;28584;42.636;23.294;2022-11-21T12:17:53;122358.97;;;3.45;100.00
42945;BME280;28584;42.636;23.294;2022-11-21T12:23:14;122207.97;;;3.43;100.00
42945;BME280;28584;42.636;23.294;2022-11-21T12:25:47;122092.44;;;3.37;100.00
42945;BME280;28584;42.636;23.294;2022-11-21T12:28:34;121736.97;;;3.42;100.00
42945;BME280;28584;42.636;23.294;2022-11-21T12:31:18;121644.66;;;3.47;100.00
42945;BME280;28584;42.636;23.294;2022-11-21T12:33:57;121433.03;;;3.41;100.00
42945;BME280;28584;42.636;23.294;2022-11-21T12:37:07;121208.41;;;3.47;100.00
42945;BME280;28584;42.636;23.294;2022-11-21T12:40:01;121035.88;;;3.50;100.00
42945;BME280;28584;42.636;23.294;2022-11-21T13:05:38;115918.69;;;3.72;100.00
42945;BME280;28584;42.636;23.294;2022-11-21T13:08:09;115304.94;;;3.75;100.00
42945;BME280;28584;42.636;23.294;2022-11-21T13:10:37;115070.34;;;3.75;100.00
42945;BME280;28584;42.636;23.294;2022-11-21T13:13:13;114718.09;;;3.75;100.00
42945;BME280;28584;42.636;23.294;2022-11-21T13:15:44;114281.38;;;3.71;100.00
42945;BME280;28584;42.636;23.294;2022-11-21T13:18:27;114107.81;;;3.63;100.00
42945;BME280;28584;42.636;23.294;2022-11-21T13:20:54;114581.41;;;3.43;100.00
42945;BME280;28584;42.636;23.294;2022-11-21T13:23:41;114599.50;;;3.33;100.00
42945;BME280;28584;42.636;23.294;2022-11-21T13:29:10;113760.81;;;3.20;100.00
42945;BME280;28584;42.636;23.294;2022-11-21T13:31:35;113736.47;;;3.08;100.00
42945;BME280;28584;42.636;23.294;2022-11-21T13:34:03;113413.66;;;3.08;100.00
42945;BME280;28584;42.636;23.294;2022-11-21T13:44:28;113237.47;;;3.24;100.00
42945;BME280;28584;42.636;23.294;2022-11-21T13:50:22;113474.03;;;3.19;100.00
42945;BME280;28584;42.636;23.294;2022-11-21T13:53:30;113870.03;;;3.17;100.00
42945;BME280;28584;42.636;23.294;2022-11-21T14:01:34;114771.94;;;3.18;100.00
42945;BME280;28584;42.636;23.294;2022-11-21T14:04:41;115690.53;;;3.11;100.00
42945;BME280;28584;42.636;23.294;2022-11-21T14:10:02;117547.53;;;2.83;100.00
42945;BME280;28584;42.636;23.294;2022-11-21T14:12:31;118153.69;;;2.82;100.00
42945;BME280;28584;42.636;23.294;2022-11-21T14:20:14;120578.84;;;2.71;100.00
42945;BME280;28584;42.636;23.294;2022-11-21T14:25:21;121676.31;;;2.61;100.00
42945;BME280;28584;42.636;23.294;2022-11-21T14:27:50;122094.69;;;2.65;100.00
42945;BME280;28584;42.636;23.294;2022-11-21T14:30:43;122471.38;;;2.69;100.00
42945;BME280;28584;42.636;23.294;2022-11-21T14:33:28;123068.63;;;2.58;100.00
42945;BME280;28584;42.636;23.294;2022-11-21T14:36:25;123166.50;;;2.66;100.00